createdAt,value
2023-03-06T00:01:56.310Z,15.43
2023-03-06T00:04:58.944Z,15.63
2023-03-06T00:08:01.145Z,14.25
2023-03-06T00:11:03.509Z,15.50
2023-03-06T00:14:05.975Z,14.07
2023-03-06T00:17:10.291Z,14.18
2023-03-06T00:20:13.238Z,16.73
2023-03-06T00:23:15.377Z,15.68
2023-03-06T00:26:17.439Z,13.77
2023-03-06T00:29:20.306Z,16.23
2023-03-06T00:32:22.392Z,13.07
2023-03-06T00:35:24.640Z,15.10
2023-03-06T00:38:26.556Z,16.25
2023-03-06T00:41:28.485Z,13.90
2023-03-06T00:44:33.166Z,15.20
2023-03-06T00:47:37.257Z,12.27
2023-03-06T00:50:39.115Z,12.68
2023-03-06T00:53:41.624Z,14.60
2023-03-06T00:56:46.402Z,14.02
2023-03-06T00:59:48.873Z,16.42
2023-03-06T01:02:52.862Z,13.50
2023-03-06T01:05:57.993Z,13.73
2023-03-06T01:09:00.442Z,13.18
2023-03-06T01:12:03.097Z,14.05
2023-03-06T01:15:06.755Z,14.90
2023-03-06T01:18:10.125Z,17.58
2023-03-06T01:21:13.730Z,14.40
2023-03-06T01:24:15.856Z,13.18
2023-03-06T01:27:25.952Z,16.10
2023-03-06T01:30:30.990Z,17.30
2023-03-06T01:33:36.233Z,15.55
2023-03-06T01:36:40.702Z,17.23
2023-03-06T01:39:44.788Z,17.70
2023-03-06T01:42:49.391Z,12.77
2023-03-06T01:45:51.582Z,17.38
2023-03-06T01:49:15.242Z,15.80
2023-03-06T01:52:23.510Z,15.93
2023-03-06T01:55:42.710Z,15.55
2023-03-06T01:58:53.613Z,15.40
2023-03-06T02:02:04.240Z,18.15
2023-03-06T02:05:09.228Z,14.30
2023-03-06T02:08:18.917Z,15.30
2023-03-06T02:11:23.709Z,16.42
2023-03-06T02:14:25.952Z,16.80
2023-03-06T02:17:32.146Z,16.80
2023-03-06T02:20:43.497Z,16.70
2023-03-06T02:24:06.649Z,15.35
2023-03-06T02:27:15.664Z,16.27
2023-03-06T02:30:18.651Z,14.70
2023-03-06T02:33:26.290Z,16.92
2023-03-06T02:36:45.284Z,18.27
2023-03-06T02:39:54.406Z,16.48
2023-03-06T02:43:06.611Z,18.27
2023-03-06T02:46:21.075Z,17.27
2023-03-06T02:49:26.601Z,18.55
2023-03-06T02:52:38.977Z,16.77
2023-03-06T02:55:41.429Z,18.40
2023-03-06T02:58:50.785Z,19.33
2023-03-06T03:05:18.365Z,16.05
2023-03-06T03:08:32.516Z,18.70
2023-03-06T03:11:38.889Z,19.40
2023-03-06T03:14:44.231Z,16.27
2023-03-06T03:17:48.438Z,16.20
2023-03-06T03:20:50.740Z,18.83
2023-03-06T03:23:52.684Z,18.98
2023-03-06T03:26:54.537Z,19.02
2023-03-06T03:29:58.685Z,17.48
2023-03-06T03:33:01.346Z,17.13
2023-03-06T03:36:05.803Z,18.27
2023-03-06T03:39:09.380Z,16.75
2023-03-06T03:42:12.525Z,19.00
2023-03-06T03:45:14.503Z,15.15
2023-03-06T03:48:16.815Z,19.52
2023-03-06T03:51:19.521Z,17.02
2023-03-06T03:54:25.724Z,19.33
2023-03-06T03:57:28.874Z,18.95
2023-03-06T04:00:32.144Z,16.52
2023-03-06T04:03:43.439Z,18.63
2023-03-06T04:06:49.047Z,17.63
2023-03-06T04:09:53.117Z,19.67
2023-03-06T04:12:55.516Z,18.55
2023-03-06T04:15:57.811Z,20.10
2023-03-06T04:18:59.932Z,18.23
2023-03-06T04:22:02.510Z,16.42
2023-03-06T04:25:06.926Z,17.63
2023-03-06T04:28:10.004Z,16.58
2023-03-06T04:34:14.242Z,18.45
2023-03-06T04:37:22.052Z,17.67
2023-03-06T04:40:29.858Z,19.67
2023-03-06T04:43:32.092Z,15.32
2023-03-06T04:46:34.742Z,16.33
2023-03-06T04:49:36.642Z,17.63
2023-03-06T04:52:39.250Z,18.77
2023-03-06T04:55:41.053Z,16.65
2023-03-06T04:58:44.465Z,17.45
2023-03-06T05:01:46.639Z,16.85
2023-03-06T05:04:48.500Z,19.05
2023-03-06T05:07:50.719Z,19.30
2023-03-06T05:10:58.029Z,15.95
2023-03-06T05:13:59.938Z,19.25
2023-03-06T05:17:01.818Z,18.40
2023-03-06T05:20:05.605Z,17.83
2023-03-06T05:23:07.475Z,18.67
2023-03-06T05:26:12.370Z,23.15
2023-03-06T05:29:14.248Z,18.55
2023-03-06T05:32:17.535Z,19.55
2023-03-06T05:35:22.057Z,20.08
2023-03-06T05:38:23.942Z,20.40
2023-03-06T05:41:25.874Z,23.58
2023-03-06T05:44:33.154Z,19.13
2023-03-06T05:47:35.095Z,23.15
2023-03-06T05:50:37.026Z,19.30
2023-03-06T05:53:40.403Z,21.13
2023-03-06T05:56:42.936Z,22.45
2023-03-06T05:59:46.351Z,17.65
2023-03-06T06:02:49.251Z,19.55
2023-03-06T06:05:51.842Z,22.30
2023-03-06T06:08:53.716Z,17.95
2023-03-06T06:12:01.510Z,20.75
2023-03-06T06:15:03.703Z,22.88
2023-03-06T06:18:05.565Z,20.23
2023-03-06T06:21:08.870Z,22.40
2023-03-06T06:24:10.704Z,18.58
2023-03-06T06:27:12.587Z,18.83
2023-03-06T06:30:14.601Z,19.73
2023-03-06T06:33:16.514Z,18.48
2023-03-06T06:36:20.853Z,18.70
2023-03-06T06:39:23.555Z,19.38
2023-03-06T06:42:33.275Z,19.17
2023-03-06T06:45:37.429Z,19.67
2023-03-06T06:48:39.345Z,19.73
2023-03-06T06:51:41.959Z,20.15
2023-03-06T06:54:43.859Z,18.25
2023-03-06T06:57:45.787Z,19.65
2023-03-06T07:00:47.632Z,18.10
2023-03-06T07:03:49.798Z,18.50
2023-03-06T07:06:54.874Z,17.83
2023-03-06T07:09:56.817Z,21.38
2023-03-06T07:12:58.924Z,18.52
2023-03-06T07:16:00.900Z,16.20
2023-03-06T07:19:03.211Z,19.80
2023-03-06T07:22:05.366Z,19.15
2023-03-06T07:25:07.736Z,20.20
2023-03-06T07:28:09.704Z,17.63
2023-03-06T07:31:12.037Z,18.25
2023-03-06T07:34:15.494Z,19.48
2023-03-06T07:37:17.852Z,23.20
2023-03-06T07:40:20.377Z,18.17
2023-03-06T07:43:22.515Z,19.30
2023-03-06T07:46:31.742Z,17.60
2023-03-06T07:49:35.711Z,18.95
2023-03-06T07:52:41.679Z,19.85
2023-03-06T07:55:44.427Z,22.38
2023-03-06T07:58:48.299Z,20.98
2023-03-06T08:01:50.827Z,18.73
2023-03-06T08:04:55.069Z,19.02
2023-03-06T08:07:57.834Z,19.15
2023-03-06T08:11:00.267Z,16.50
2023-03-06T08:14:02.918Z,21.00
2023-03-06T08:17:09.720Z,16.90
2023-03-06T08:20:13.840Z,20.88
2023-03-06T08:23:16.394Z,16.63
2023-03-06T08:26:24.641Z,17.25
2023-03-06T08:29:27.997Z,17.48
2023-03-06T08:32:31.220Z,16.85
2023-03-06T08:35:34.629Z,17.20
2023-03-06T08:38:37.537Z,20.60
2023-03-06T08:41:41.562Z,18.70
2023-03-06T08:44:44.671Z,17.90
2023-03-06T08:47:47.970Z,19.27
2023-03-06T08:50:51.414Z,19.40
2023-03-06T08:53:54.741Z,16.98
2023-03-06T08:56:57.666Z,16.17
2023-03-06T09:03:04.316Z,17.85
2023-03-06T09:06:11.227Z,16.73
2023-03-06T09:09:15.062Z,16.45
2023-03-06T09:12:18.382Z,19.20
2023-03-06T09:15:22.646Z,19.73
2023-03-06T09:18:26.171Z,18.50
2023-03-06T09:21:29.791Z,15.82
2023-03-06T09:24:33.063Z,17.30
2023-03-06T09:27:36.952Z,16.63
2023-03-06T09:30:41.279Z,19.92
2023-03-06T09:33:44.656Z,19.35
2023-03-06T09:36:56.799Z,18.85
2023-03-06T09:40:00.728Z,19.65
2023-03-06T09:46:24.046Z,17.63
2023-03-06T09:49:57.455Z,18.10
2023-03-06T09:53:04.836Z,20.23
2023-03-06T09:56:20.505Z,16.85
2023-03-06T09:59:25.680Z,20.98
2023-03-06T10:02:50.608Z,18.42
2023-03-06T10:06:08.438Z,17.60
2023-03-06T10:09:24.697Z,17.27
2023-03-06T10:12:32.952Z,16.55
2023-03-06T10:15:38.104Z,18.73
2023-03-06T10:18:40.817Z,18.77
2023-03-06T10:21:57.005Z,17.23
2023-03-06T10:25:39.372Z,18.10
2023-03-06T10:28:47.554Z,19.00
2023-03-06T10:32:03.734Z,18.23
2023-03-06T10:35:15.893Z,17.65
2023-03-06T10:38:22.886Z,16.35
2023-03-06T10:41:27.871Z,15.50
2023-03-06T10:44:31.092Z,18.45
2023-03-06T10:47:35.176Z,16.50
2023-03-06T10:50:38.571Z,19.02
2023-03-06T10:54:09.009Z,16.83
2023-03-06T10:57:25.817Z,15.60
2023-03-06T11:00:36.200Z,14.73
2023-03-06T11:03:40.326Z,15.75
2023-03-06T11:06:47.659Z,17.00
2023-03-06T11:09:59.146Z,16.30
2023-03-06T11:13:17.437Z,16.45
2023-03-06T11:16:25.965Z,14.38
2023-03-06T11:19:30.179Z,18.20
2023-03-06T11:22:34.422Z,16.88
2023-03-06T11:25:46.374Z,17.25
2023-03-06T11:29:02.985Z,14.93
2023-03-06T11:32:23.461Z,15.65
2023-03-06T11:35:44.624Z,14.98
2023-03-06T11:38:53.385Z,14.25
2023-03-06T11:41:59.175Z,15.75
2023-03-06T11:45:32.730Z,14.82
2023-03-06T11:48:41.525Z,15.73
2023-03-06T12:03:22.453Z,15.38
2023-03-06T12:06:51.968Z,15.55
2023-03-06T12:09:59.206Z,13.93
2023-03-06T12:13:37.818Z,14.63
2023-03-06T12:16:55.083Z,13.48
2023-03-06T12:20:34.911Z,13.77
2023-03-06T12:24:08.230Z,11.40
2023-03-06T12:27:13.270Z,12.38
2023-03-06T12:30:44.513Z,10.75
2023-03-06T12:34:07.723Z,12.05
2023-03-06T12:37:19.533Z,11.77
2023-03-06T12:40:51.624Z,12.38
2023-03-06T12:44:01.461Z,13.60
2023-03-06T12:47:09.198Z,13.65
2023-03-06T12:50:22.913Z,13.90
2023-03-06T12:53:30.435Z,11.80
2023-03-06T12:56:33.856Z,12.13
2023-03-06T12:59:45.999Z,11.63
2023-03-06T13:03:05.086Z,11.43
2023-03-06T13:06:36.556Z,10.55
2023-03-06T13:10:13.839Z,11.40
2023-03-06T13:13:32.273Z,10.82
2023-03-06T13:16:34.937Z,12.57
2023-03-06T13:19:36.972Z,11.35
2023-03-06T13:22:42.897Z,9.23
2023-03-06T13:25:52.806Z,12.25
2023-03-06T13:28:56.265Z,12.32
2023-03-06T13:32:01.897Z,10.75
2023-03-06T13:35:32.742Z,10.13
2023-03-06T13:38:49.533Z,11.20
2023-03-06T13:41:57.319Z,10.77
2023-03-06T13:45:38.621Z,10.85
2023-03-06T13:48:45.328Z,11.40
2023-03-06T13:52:18.273Z,9.75
2023-03-06T13:55:35.320Z,9.80
2023-03-06T13:58:57.590Z,11.43
2023-03-06T14:02:09.913Z,11.30
2023-03-06T14:05:17.625Z,13.13
2023-03-06T14:08:32.417Z,14.02
2023-03-06T14:11:37.684Z,14.18
2023-03-06T14:14:44.616Z,16.63
2023-03-06T14:18:03.635Z,15.27
2023-03-06T14:21:12.725Z,12.00
2023-03-06T14:24:20.144Z,13.10
2023-03-06T14:27:38.564Z,13.52
2023-03-06T14:30:49.685Z,14.68
2023-03-06T14:33:55.448Z,15.35
2023-03-06T14:37:02.838Z,15.07
2023-03-06T14:40:11.193Z,16.50
2023-03-06T14:43:27.173Z,13.73
2023-03-06T14:46:29.334Z,11.63
2023-03-06T14:49:31.433Z,13.57
2023-03-06T14:52:34.061Z,14.57
2023-03-06T14:55:36.928Z,14.52
2023-03-06T14:58:54.336Z,13.77
2023-03-06T15:02:08.904Z,14.20
2023-03-06T15:05:26.553Z,15.60
2023-03-06T15:08:33.509Z,15.18
2023-03-06T15:12:05.246Z,14.90
2023-03-06T15:15:07.391Z,15.52
2023-03-06T15:18:29.993Z,15.70
2023-03-06T15:21:38.194Z,15.27
2023-03-06T15:24:40.304Z,15.27
2023-03-06T15:27:49.273Z,13.18
2023-03-06T15:34:23.918Z,14.63
2023-03-06T15:37:29.127Z,17.13
2023-03-06T15:40:31.614Z,14.48
2023-03-06T15:43:44.952Z,15.23
2023-03-06T15:47:02.697Z,13.85
2023-03-06T15:50:20.422Z,17.05
2023-03-06T15:53:24.607Z,17.00
2023-03-06T15:56:33.609Z,18.00
2023-03-06T16:02:41.863Z,16.33
2023-03-06T16:05:43.987Z,13.32
2023-03-06T16:08:46.254Z,15.43
2023-03-06T16:11:54.830Z,15.30
2023-03-06T16:15:02.780Z,17.92
2023-03-06T16:18:05.223Z,15.32
2023-03-06T16:21:07.240Z,15.73
2023-03-06T16:24:09.369Z,15.60
2023-03-06T16:27:18.675Z,17.20
2023-03-06T16:33:23.492Z,13.77
2023-03-06T16:39:35.051Z,14.48
2023-03-06T16:42:39.374Z,15.13
2023-03-06T16:45:42.296Z,12.75
2023-03-06T16:51:53.501Z,17.13
2023-03-06T16:54:55.658Z,11.77
2023-03-06T16:57:57.755Z,13.55
2023-03-06T17:00:59.819Z,12.07
2023-03-06T17:04:01.839Z,9.90
2023-03-06T17:07:11.513Z,12.65
2023-03-06T17:10:16.778Z,13.27
2023-03-06T17:13:18.724Z,11.80
2023-03-06T17:19:27.994Z,9.80
2023-03-06T17:22:33.053Z,11.30
2023-03-06T17:25:35.193Z,9.95
2023-03-06T17:28:38.705Z,10.13
2023-03-06T17:31:40.924Z,10.52
2023-03-06T17:34:43.054Z,11.27
2023-03-06T17:37:45.078Z,10.95
2023-03-06T17:40:47.104Z,10.95
2023-03-06T17:43:49.214Z,10.10
2023-03-06T17:50:05.480Z,9.52
2023-03-06T17:53:07.425Z,11.52
2023-03-06T17:56:12.589Z,10.63
2023-03-06T17:59:14.876Z,12.05
2023-03-06T18:02:16.909Z,11.98
2023-03-06T18:05:19.118Z,14.05
2023-03-06T18:08:21.338Z,11.35
2023-03-06T18:11:23.534Z,12.63
2023-03-06T18:14:25.511Z,12.32
2023-03-06T18:17:27.730Z,10.82
2023-03-06T18:20:29.747Z,9.75
2023-03-06T18:23:31.857Z,10.75
2023-03-06T18:26:34.076Z,11.32
2023-03-06T18:29:36.297Z,11.88
2023-03-06T18:32:38.474Z,12.60
2023-03-06T18:35:40.664Z,10.18
2023-03-06T18:38:43.016Z,14.15
2023-03-06T18:41:45.296Z,11.20
2023-03-06T18:44:47.419Z,12.55
2023-03-06T18:47:49.592Z,10.65
2023-03-06T18:50:51.773Z,12.45
2023-03-06T18:53:57.391Z,13.88
2023-03-06T18:56:59.366Z,10.93
2023-03-06T19:00:01.704Z,10.52
2023-03-06T19:03:03.929Z,13.52
2023-03-06T19:06:14.267Z,16.15
2023-03-06T19:09:23.010Z,14.52
2023-03-06T19:15:48.836Z,18.52
2023-03-06T19:18:51.661Z,16.85
2023-03-06T19:21:53.881Z,16.73
2023-03-06T19:24:56.197Z,16.15
2023-03-06T19:27:59.116Z,18.27
2023-03-06T19:31:11.382Z,16.35
2023-03-06T19:34:13.567Z,19.80
2023-03-06T19:37:15.646Z,21.67
2023-03-06T19:43:25.151Z,18.90
2023-03-06T19:46:27.715Z,20.90
2023-03-06T19:49:36.089Z,19.48
2023-03-06T19:52:38.293Z,19.65
2023-03-06T19:55:40.343Z,21.85
2023-03-06T19:58:42.558Z,21.08
2023-03-06T20:01:45.119Z,22.42
2023-03-06T20:04:47.319Z,24.73
2023-03-06T20:07:49.975Z,19.15
2023-03-06T20:10:52.282Z,22.42
2023-03-06T20:13:54.332Z,18.55
2023-03-06T20:16:56.755Z,21.30
2023-03-06T20:19:58.918Z,20.42
2023-03-06T20:23:01.041Z,20.65
2023-03-06T20:26:08.401Z,19.67
2023-03-06T20:29:11.620Z,16.33
2023-03-06T20:32:14.308Z,15.88
2023-03-06T20:35:16.422Z,20.42
2023-03-06T20:38:18.515Z,17.40
2023-03-06T20:41:24.617Z,17.60
2023-03-06T20:44:27.118Z,20.08
2023-03-06T20:47:29.335Z,18.88
2023-03-06T20:50:31.319Z,13.82
2023-03-06T20:53:34.285Z,15.55
2023-03-06T20:59:39.163Z,15.50
2023-03-06T21:02:41.265Z,15.85
2023-03-06T21:05:45.947Z,19.10
2023-03-06T21:08:48.599Z,15.35
2023-03-06T21:11:51.064Z,16.40
2023-03-06T21:14:53.196Z,16.08
2023-03-06T21:17:55.354Z,17.90
2023-03-06T21:20:57.594Z,18.10
2023-03-06T21:23:59.955Z,16.00
2023-03-06T21:27:02.065Z,15.23
2023-03-06T21:30:04.510Z,15.02
2023-03-06T21:33:06.508Z,16.75
2023-03-06T21:36:09.589Z,17.00
2023-03-06T21:39:11.649Z,18.38
2023-03-06T21:42:13.785Z,16.92
2023-03-06T21:45:15.904Z,18.33
2023-03-06T21:48:18.524Z,17.27
2023-03-06T21:54:23.522Z,15.20
2023-03-06T21:57:25.762Z,15.55
2023-03-06T22:03:35.363Z,15.80
2023-03-06T22:06:38.665Z,17.23
2023-03-06T22:09:40.616Z,16.20
2023-03-06T22:12:42.950Z,17.30
2023-03-06T22:15:53.844Z,18.60
2023-03-06T22:18:56.024Z,14.60
2023-03-06T22:21:58.105Z,16.60
2023-03-06T22:25:00.147Z,18.92
2023-03-06T22:28:02.484Z,16.33
2023-03-06T22:31:10.138Z,19.42
2023-03-06T22:34:12.514Z,17.50
2023-03-06T22:37:14.479Z,18.13
2023-03-06T22:40:16.895Z,16.30
2023-03-06T22:43:19.536Z,16.17
2023-03-06T22:46:21.978Z,16.25
2023-03-06T22:49:24.407Z,16.58
2023-03-06T22:52:26.649Z,16.33
2023-03-06T22:55:28.687Z,17.98
2023-03-06T22:58:32.940Z,17.05
2023-03-06T23:01:35.495Z,18.35
2023-03-06T23:04:37.833Z,19.90
2023-03-06T23:07:39.887Z,18.33
2023-03-06T23:10:41.885Z,17.33
2023-03-06T23:14:02.728Z,12.90
2023-03-06T23:17:23.692Z,16.30
2023-03-06T23:20:45.052Z,16.13
2023-03-06T23:27:07.839Z,20.40
2023-03-06T23:30:12.825Z,16.20
2023-03-06T23:33:14.704Z,17.27
2023-03-06T23:36:18.246Z,16.70
2023-03-06T23:39:20.478Z,16.38
2023-03-06T23:42:22.489Z,18.80
2023-03-06T23:45:24.652Z,16.98
2023-03-06T23:48:27.467Z,15.07
2023-03-06T23:51:29.682Z,16.95
2023-03-06T23:54:31.798Z,16.20
2023-03-06T23:57:33.988Z,21.70
